Site contains unofficial IBTrACS data. Visit the IBTrACS Website to access archived data.

1877 NOT_NAMED (1877042S18059)


IBTrACS version v04r00. Visit IBTrACS website for data access.
Please direct all questions to the IBTrACS Q and A forum

Storm track - Intensity - Wind Radii - Intensity Data - Source Data - All data

Summary Information

Storm ID 1877042S18059
Start Feb 11 06Z
End Feb 18 06Z
ATCF IDs
Track status Best track data.

Storm track plot

Map of storm track

Intensity plots

No Intensity information for this storm


Radial wind information

No radial wind information for this storm


Position and Intensity Table

BASIN ISO_TIME_________ NATURE LAT LON
degrees north degrees east
SI 1877-02-11 06:00:00 NR -18.00 58.80
SI 09:00:00 NR -18.27 58.80
SI 12:00:00 NR -18.54 58.80
SI 15:00:00 NR -18.80 58.80
SI 18:00:00 NR -19.06 58.80
SI 21:00:00 NR -19.31 58.80
SI 1877-02-12 00:00:00 NR -19.55 58.80
SI 03:00:00 NR -19.78 58.80
SI 06:00:00 NR -20.00 58.80
SI 09:00:00 NR -20.20 58.80
SI 12:00:00 NR -20.39 58.80
SI 15:00:00 NR -20.57 58.79
SI 18:00:00 NR -20.74 58.79
SI 21:00:00 NR -20.90 58.79
SI 1877-02-13 00:00:00 NR -21.07 58.79
SI 03:00:00 NR -21.23 58.80
SI 06:00:00 NR -21.40 58.80
SI 09:00:00 NR -21.57 58.81
SI 12:00:00 NR -21.74 58.82
SI 15:00:00 NR -21.91 58.83
SI 18:00:00 NR -22.09 58.84
SI 21:00:00 NR -22.28 58.86
SI 1877-02-14 00:00:00 NR -22.47 58.87
SI 03:00:00 NR -22.68 58.89
SI 06:00:00 NR -22.90 58.90
SI 09:00:00 NR -23.12 58.90
SI 12:00:00 NR -23.35 58.91
SI 15:00:00 NR -23.60 58.91
SI 18:00:00 NR -23.86 58.91
SI 21:00:00 NR -24.14 58.92
SI 1877-02-15 00:00:00 NR -24.44 58.94
SI 03:00:00 NR -24.76 58.97
SI 06:00:00 NR -25.10 59.00
SI 09:00:00 NR -25.45 59.04
SI 12:00:00 NR -25.83 59.08
SI 15:00:00 NR -26.22 59.14
SI 18:00:00 NR -26.64 59.21
SI 21:00:00 NR -27.08 59.28
SI 1877-02-16 00:00:00 NR -27.54 59.38
SI 03:00:00 NR -28.01 59.48
SI 06:00:00 NR -28.50 59.60
SI 09:00:00 NR -29.05 59.75
SI 12:00:00 NR -29.62 59.91
SI 15:00:00 NR -30.20 60.09
SI 18:00:00 NR -30.79 60.28
SI 21:00:00 NR -31.35 60.47
SI 1877-02-17 00:00:00 NR -31.88 60.65
SI 03:00:00 NR -32.37 60.83
SI 06:00:00 NR -32.80 61.00
SI 09:00:00 NR -33.16 61.15
SI 12:00:00 NR -33.46 61.27
SI 15:00:00 NR -33.70 61.39
SI 18:00:00 NR -33.89 61.49
SI 21:00:00 NR -34.05 61.57
SI 1877-02-18 00:00:00 NR -34.18 61.65
SI 03:00:00 NR -34.30 61.73
SI 06:00:00 NR -34.40 61.80

Source Information

Agency Information
USA
TOKYO
CMA
HKO
NEWDELHI
REUNION WMO-Best-Tracks.txt:Line=1127:xxxx877166
BOM
NADI
WELLINGTON
DS824
TD9636
TD9635
NEUMANN
MLC

All available IBTrACS Data

SEASON BASIN SUBBASIN ISO_TIME_________ NATURE LAT LON WMO AGENCY DIST2LAND LANDFALL IFLAG USA SSHS REUNION LAT REUNION LON REUNION TYPE REUNION TNUM STORM SPEED STORM DIR
Year degrees north degrees east km km 1 degrees north degrees east 1 kts degrees
1877 SI MM 1877-02-11 06:00:00 NR -18.00 58.80 reunion 261 232 _____O________ -1 -18.00 58.80 99 9.90 5 176
1877 SI MM 09:00:00 NR -18.27 58.80 232 212 _____P________ -1 -18.27 58.80 99 5 177
1877 SI MM 12:00:00 NR -18.54 58.80 212 185 _____P________ -1 -18.54 58.80 99 5 177
1877 SI MM 15:00:00 NR -18.80 58.80 185 168 _____P________ -1 -18.80 58.80 99 5 0
1877 SI MM 18:00:00 NR -19.06 58.80 160 145 _____P________ -1 -19.06 58.80 99 5 0
1877 SI MM 21:00:00 NR -19.31 58.80 145 133 _____P________ -1 -19.31 58.80 99 5 182
1877 SI MM 1877-02-12 00:00:00 NR -19.55 58.80 127 118 _____P________ -1 -19.55 58.80 99 5 183
1877 SI MM 03:00:00 NR -19.78 58.80 118 109 _____P________ -1 -19.78 58.80 99 4 183
1877 SI MM 06:00:00 NR -20.00 58.80 reunion 109 104 _____O________ -1 -20.00 58.80 99 9.90 4 181
1877 SI MM 09:00:00 NR -20.20 58.80 104 104 _____P________ -1 -20.20 58.80 99 4 183
1877 SI MM 12:00:00 NR -20.39 58.80 104 104 _____P________ -1 -20.39 58.80 99 4 184
1877 SI MM 15:00:00 NR -20.57 58.79 109 109 _____P________ -1 -20.57 58.79 99 4 184
1877 SI MM 18:00:00 NR -20.74 58.79 113 113 _____P________ -1 -20.74 58.79 99 3 0
1877 SI MM 21:00:00 NR -20.90 58.79 122 122 _____P________ -1 -20.90 58.79 99 3 0
1877 SI MM 1877-02-13 00:00:00 NR -21.07 58.79 132 132 _____P________ -1 -21.07 58.79 99 3 179
1877 SI MM 03:00:00 NR -21.23 58.80 138 138 _____P________ -1 -21.23 58.80 99 3 177
1877 SI MM 06:00:00 NR -21.40 58.80 reunion 152 152 _____O________ -1 -21.40 58.80 99 9.90 3 177
1877 SI MM 09:00:00 NR -21.57 58.81 167 167 _____P________ -1 -21.57 58.81 99 3 176
1877 SI MM 12:00:00 NR -21.74 58.82 176 176 _____P________ -1 -21.74 58.82 99 3 0
1877 SI MM 15:00:00 NR -21.91 58.83 193 193 _____P________ -1 -21.91 58.83 99 4 176
1877 SI MM 18:00:00 NR -22.09 58.84 212 212 _____P________ -1 -22.09 58.84 99 4 0
1877 SI MM 21:00:00 NR -22.28 58.86 236 236 _____P________ -1 -22.28 58.86 99 4 176
1877 SI MM 1877-02-14 00:00:00 NR -22.47 58.87 255 255 _____P________ -1 -22.47 58.87 99 4 176
1877 SI MM 03:00:00 NR -22.68 58.89 275 275 _____P________ -1 -22.68 58.89 99 4 177
1877 SI MM 06:00:00 NR -22.90 58.90 reunion 295 295 _____O________ -1 -22.90 58.90 99 9.90 4 176
1877 SI MM 09:00:00 NR -23.12 58.90 315 315 _____P________ -1 -23.12 58.90 99 5 179
1877 SI MM 12:00:00 NR -23.35 58.91 347 347 _____P________ -1 -23.35 58.91 99 5 0
1877 SI MM 15:00:00 NR -23.60 58.91 367 367 _____P________ -1 -23.60 58.91 99 5 179
1877 SI MM 18:00:00 NR -23.86 58.91 399 399 _____P________ -1 -23.86 58.91 99 5 0
1877 SI MM 21:00:00 NR -24.14 58.92 420 420 _____P________ -1 -24.14 58.92 99 6 0
1877 SI MM 1877-02-15 00:00:00 NR -24.44 58.94 453 453 _____P________ -1 -24.44 58.94 99 6 176
1877 SI MM 03:00:00 NR -24.76 58.97 498 498 _____P________ -1 -24.76 58.97 99 7 175
1877 SI MM 06:00:00 NR -25.10 59.00 reunion 531 531 _____O________ -1 -25.10 59.00 99 9.90 7 174
1877 SI MM 09:00:00 NR -25.45 59.04 571 571 _____P________ -1 -25.45 59.04 99 7 174
1877 SI MM 12:00:00 NR -25.83 59.08 604 604 _____P________ -1 -25.83 59.08 99 8 174
1877 SI MM 15:00:00 NR -26.22 59.14 642 642 _____P________ -1 -26.22 59.14 99 8 172
1877 SI MM 18:00:00 NR -26.64 59.21 685 685 _____P________ -1 -26.64 59.21 99 9 171
1877 SI MM 21:00:00 NR -27.08 59.28 738 738 _____P________ -1 -27.08 59.28 99 9 170
1877 SI MM 1877-02-16 00:00:00 NR -27.54 59.38 782 782 _____P________ -1 -27.54 59.38 99 10 170
1877 SI MM 03:00:00 NR -28.01 59.48 835 835 _____P________ -1 -28.01 59.48 99 10 168
1877 SI MM 06:00:00 NR -28.50 59.60 reunion 889 889 _____O________ -1 -28.50 59.60 99 9.90 11 167
1877 SI MM 09:00:00 NR -29.05 59.75 943 943 _____P________ -1 -29.05 59.75 99 12 166
1877 SI MM 12:00:00 NR -29.62 59.91 1012 1012 _____P________ -1 -29.62 59.91 99 12 166
1877 SI MM 15:00:00 NR -30.20 60.09 1080 1080 _____P________ -1 -30.20 60.09 99 12 165
1877 SI MM 18:00:00 NR -30.79 60.28 1149 1149 _____P________ -1 -30.79 60.28 99 12 164
1877 SI MM 21:00:00 NR -31.35 60.47 1218 1218 _____P________ -1 -31.35 60.47 99 11 164
1877 SI MM 1877-02-17 00:00:00 NR -31.88 60.65 1276 1276 _____P________ -1 -31.88 60.65 99 11 163
1877 SI MM 03:00:00 NR -32.37 60.83 1331 1331 _____P________ -1 -32.37 60.83 99 10 162
1877 SI MM 06:00:00 NR -32.80 61.00 reunion 1379 1379 _____O________ -1 -32.80 61.00 99 9.90 8 162
1877 SI MM 09:00:00 NR -33.16 61.15 1424 1424 _____P________ -1 -33.16 61.15 99 7 161
1877 SI MM 12:00:00 NR -33.46 61.27 1462 1462 _____P________ -1 -33.46 61.27 99 6 159
1877 SI MM 15:00:00 NR -33.70 61.39 1486 1486 _____P________ -1 -33.70 61.39 99 5 158
1877 SI MM 18:00:00 NR -33.89 61.49 1510 1510 _____P________ -1 -33.89 61.49 99 4 157
1877 SI MM 21:00:00 NR -34.05 61.57 1534 1534 _____P________ -1 -34.05 61.57 99 3 155
1877 SI MM 1877-02-18 00:00:00 NR -34.18 61.65 1548 1548 _____P________ -1 -34.18 61.65 99 3 153
1877 SI MM 03:00:00 NR -34.30 61.73 1558 1558 _____P________ -1 -34.30 61.73 99 2 152
1877 SI MM 06:00:00 NR -34.40 61.80 reunion 1572 _____O________ -1 -34.40 61.80 99 9.90 2 152